Time;durP1;ratioP1;P1;durP2;ratioP2;P2;SDS_P1;SDS_P2;PMS_P1;PMS_P2;Temp;Humidity;BMP_temperature;BMP_pressure;BME280_temperature;BME280_humidity;BME280_pressure;Samples;Min_cycle;Max_cycle;Signal;HPM_P1;HPM_P2
2022/02/19 00:00:52;;;;;;;0.60;0.60;;;;;;;9.22;54.12;95127.19;5052689;28;20245;-83
2022/02/19 00:03:19;;;;;;;0.90;0.90;;;;;;;9.19;54.29;95135.22;5053422;28;20198;-84
2022/02/19 00:05:45;;;;;;;4.27;2.53;;;;;;;9.23;54.55;95139.03;5053459;28;20205;-83
2022/02/19 00:08:13;;;;;;;1.00;0.90;;;;;;;9.10;54.83;95131.16;5053200;28;20216;-84
2022/02/19 00:10:40;;;;;;;1.23;0.73;;;;;;;9.06;54.70;95150.44;5053590;28;20244;-83
2022/02/19 00:13:06;;;;;;;2.43;2.00;;;;;;;9.15;55.23;95154.53;5052321;28;20259;-84
2022/02/19 00:15:33;;;;;;;1.67;0.80;;;;;;;9.18;55.40;95164.47;5056446;28;20939;-84
2022/02/19 00:18:01;;;;;;;1.27;0.80;;;;;;;9.18;55.56;95163.66;5056588;28;20262;-83
2022/02/19 00:20:27;;;;;;;1.13;0.70;;;;;;;8.90;51.74;95168.59;5057600;28;20217;-84
2022/02/19 00:22:54;;;;;;;1.23;0.77;;;;;;;8.81;51.52;95167.91;5055851;28;20630;-84
2022/02/19 00:25:20;;;;;;;2.17;0.80;;;;;;;8.82;51.40;95176.41;5050467;28;20204;-84
2022/02/19 00:27:47;;;;;;;1.37;0.80;;;;;;;8.81;50.46;95169.66;5054083;28;20222;-83
2022/02/19 00:30:14;;;;;;;0.83;0.70;;;;;;;8.64;49.63;95177.53;5056444;28;20229;-86
2022/02/19 00:32:41;;;;;;;1.13;0.73;;;;;;;8.66;49.56;95167.06;5056620;28;20221;-83
2022/02/19 00:35:08;;;;;;;2.27;0.80;;;;;;;8.58;49.42;95197.94;5056073;28;20569;-84
2022/02/19 00:37:35;;;;;;;6.23;4.30;;;;;;;8.59;49.43;95176.44;5056747;28;20201;-85
2022/02/19 00:40:01;;;;;;;2.33;1.00;;;;;;;8.56;50.17;95203.25;5055812;28;20793;-84
2022/02/19 00:42:28;;;;;;;1.53;1.10;;;;;;;8.68;50.11;95201.06;5056167;28;20641;-84
2022/02/19 00:44:54;;;;;;;0.90;0.70;;;;;;;8.58;50.27;95178.22;5056026;28;20205;-85
2022/02/19 00:47:21;;;;;;;1.10;0.77;;;;;;;8.66;50.60;95190.16;5056200;28;20217;-85
2022/02/19 00:49:48;;;;;;;2.80;0.90;;;;;;;8.58;50.93;95169.72;5055418;28;20194;-85
2022/02/19 00:52:16;;;;;;;1.20;1.10;;;;;;;8.54;50.58;95176.97;5054817;28;20217;-85
2022/02/19 00:54:43;;;;;;;1.03;0.70;;;;;;;8.56;51.29;95192.19;5056051;28;20193;-84
2022/02/19 00:57:10;;;;;;;1.20;1.00;;;;;;;8.45;51.99;95201.09;5055145;28;20194;-85
2022/02/19 00:59:36;;;;;;;1.63;1.00;;;;;;;8.33;53.28;95205.03;5055985;28;20194;-84
2022/02/19 01:02:03;;;;;;;0.93;0.80;;;;;;;8.19;54.12;95198.06;5054257;28;20287;-85
2022/02/19 01:04:29;;;;;;;0.93;0.73;;;;;;;8.25;53.93;95192.25;5055229;28;20232;-84
2022/02/19 01:06:56;;;;;;;1.40;0.73;;;;;;;8.25;53.17;95202.50;5055050;28;20225;-84
2022/02/19 01:09:26;;;;;;;0.70;0.60;;;;;;;8.32;52.28;95217.06;5054664;28;20201;-85
2022/02/19 01:11:53;;;;;;;0.87;0.70;;;;;;;8.32;51.36;95214.50;5054667;28;20606;-84
2022/02/19 01:14:19;;;;;;;1.50;0.83;;;;;;;8.34;50.53;95226.34;5055688;28;20201;-84
2022/02/19 01:16:46;;;;;;;1.13;0.90;;;;;;;8.21;49.05;95232.03;5055231;28;20699;-85
2022/02/19 01:19:12;;;;;;;1.70;0.87;;;;;;;8.18;48.57;95216.97;5055053;28;20243;-84
2022/02/19 01:21:38;;;;;;;2.20;1.00;;;;;;;8.12;48.74;95227.91;5054844;28;20260;-84
2022/02/19 01:24:06;;;;;;;1.07;0.77;;;;;;;8.25;48.08;95216.13;5054257;28;20224;-83
2022/02/19 01:26:34;;;;;;;2.10;1.00;;;;;;;8.40;47.81;95213.66;5053432;28;20217;-84
2022/02/19 01:29:01;;;;;;;1.20;0.70;;;;;;;8.24;46.54;95209.41;5054482;28;20229;-84
2022/02/19 01:31:29;;;;;;;1.63;0.70;;;;;;;8.34;46.35;95222.00;5053695;28;20280;-85
2022/02/19 01:33:56;;;;;;;1.90;0.70;;;;;;;8.37;46.47;95221.69;5054066;28;20627;-84
2022/02/19 01:36:22;;;;;;;0.70;0.70;;;;;;;8.45;46.28;95223.41;5054409;28;20263;-84
2022/02/19 01:38:49;;;;;;;1.50;0.70;;;;;;;8.39;45.73;95227.44;5054481;28;20206;-83
2022/02/19 01:41:16;;;;;;;1.07;0.70;;;;;;;8.49;46.17;95219.50;5053655;28;20766;-84
2022/02/19 01:43:43;;;;;;;1.20;0.83;;;;;;;8.50;45.99;95228.78;5054435;28;20205;-84
2022/02/19 01:46:10;;;;;;;1.50;1.03;;;;;;;8.46;45.89;95225.78;5053321;28;20194;-84
2022/02/19 01:48:36;;;;;;;3.70;0.90;;;;;;;8.45;45.97;95221.63;5054284;28;20247;-84
2022/02/19 01:51:03;;;;;;;1.27;0.70;;;;;;;8.43;46.69;95227.91;5053593;28;20233;-85
2022/02/19 01:53:31;;;;;;;0.90;0.70;;;;;;;8.37;46.79;95226.81;5054542;28;20206;-85
2022/02/19 01:55:58;;;;;;;1.43;0.70;;;;;;;8.40;47.69;95228.25;5053966;28;20193;-83
2022/02/19 01:58:26;;;;;;;1.00;0.60;;;;;;;8.58;47.81;95226.97;5054209;28;20257;-84
2022/02/19 02:00:54;;;;;;;1.07;0.87;;;;;;;8.40;48.66;95239.28;5053041;28;20225;-84
2022/02/19 02:03:20;;;;;;;1.10;0.60;;;;;;;8.34;48.69;95241.72;5054510;28;20194;-84
2022/02/19 02:05:47;;;;;;;0.67;0.67;;;;;;;8.25;49.20;95239.22;5054329;28;20205;-84
2022/02/19 02:08:14;;;;;;;0.60;0.60;;;;;;;8.17;50.06;95246.94;5053249;28;20209;-83
2022/02/19 02:10:41;;;;;;;0.50;0.50;;;;;;;8.18;50.11;95240.84;5053449;28;20248;-85
2022/02/19 02:13:07;;;;;;;1.30;0.60;;;;;;;8.34;50.20;95244.31;5052987;28;20224;-84
2022/02/19 02:15:34;;;;;;;1.73;0.60;;;;;;;8.31;50.39;95251.34;5053014;28;20263;-84
2022/02/19 02:18:02;;;;;;;1.87;0.70;;;;;;;8.29;51.02;95247.34;5053403;28;20190;-82
2022/02/19 02:20:29;;;;;;;1.53;0.80;;;;;;;8.28;51.26;95258.56;5053700;28;20217;-83
2022/02/19 02:22:57;;;;;;;2.37;0.80;;;;;;;8.32;51.25;95252.97;5052814;28;20229;-84
2022/02/19 02:25:27;;;;;;;1.10;0.70;;;;;;;8.37;51.02;95255.03;5052792;28;20208;-83
2022/02/19 02:27:53;;;;;;;1.63;0.73;;;;;;;8.45;51.19;95249.03;5053386;28;20221;-84
2022/02/19 02:30:20;;;;;;;1.37;0.83;;;;;;;8.34;51.88;95247.66;5053465;28;20225;-83
2022/02/19 02:32:46;;;;;;;1.90;0.80;;;;;;;8.27;52.00;95251.88;5053092;28;20252;-84
2022/02/19 02:35:14;;;;;;;1.37;0.73;;;;;;;8.41;51.85;95253.72;5053134;28;20197;-85
2022/02/19 02:37:41;;;;;;;2.13;1.00;;;;;;;8.35;52.22;95240.78;5052528;28;20193;-84
2022/02/19 02:40:10;;;;;;;1.87;1.20;;;;;;;8.31;52.75;95246.19;5058925;28;20197;-85
2022/02/19 02:42:36;;;;;;;2.43;0.80;;;;;;;8.34;52.54;95245.09;5070413;28;20231;-84
2022/02/19 02:45:03;;;;;;;1.83;0.93;;;;;;;8.35;52.90;95262.09;5061921;28;20205;-84
2022/02/19 02:47:30;;;;;;;1.70;1.00;;;;;;;8.46;52.51;95255.78;5049909;28;20243;-83
2022/02/19 02:49:56;;;;;;;1.97;0.90;;;;;;;8.52;52.59;95263.56;5056093;28;20227;-84
2022/02/19 02:52:23;;;;;;;1.10;0.80;;;;;;;8.41;52.81;95260.63;5056056;28;20220;-84
2022/02/19 02:54:49;;;;;;;2.27;0.97;;;;;;;8.39;52.89;95270.25;5055384;28;20198;-84
2022/02/19 02:57:17;;;;;;;2.20;0.70;;;;;;;8.21;53.47;95276.41;5052705;28;20217;-84
2022/02/19 02:59:43;;;;;;;1.00;0.80;;;;;;;8.19;54.01;95295.50;5053168;28;20228;-84
2022/02/19 03:02:10;;;;;;;2.53;0.80;;;;;;;8.12;54.49;95282.53;5052198;28;20232;-83
2022/02/19 03:04:36;;;;;;;0.70;0.60;;;;;;;8.14;54.77;95290.06;5052686;28;20251;-84
2022/02/19 03:07:03;;;;;;;2.60;1.00;;;;;;;8.13;55.75;95294.41;5052587;28;20267;-84
2022/02/19 03:09:29;;;;;;;1.50;0.80;;;;;;;8.07;56.66;95299.41;5052253;28;20691;-84
2022/02/19 03:11:55;;;;;;;1.27;0.70;;;;;;;7.85;59.64;95316.34;5051901;28;20233;-84
2022/02/19 03:14:23;;;;;;;0.83;0.80;;;;;;;7.72;63.72;95319.41;5051283;28;20726;-84
2022/02/19 03:16:50;;;;;;;0.57;0.57;;;;;;;7.66;66.19;95304.72;5052785;28;20197;-83
2022/02/19 03:19:16;;;;;;;0.87;0.60;;;;;;;7.78;65.81;95308.50;5052115;28;20606;-80
2022/02/19 03:21:43;;;;;;;0.70;0.70;;;;;;;7.75;66.90;95313.16;5052202;28;20284;-83
2022/02/19 03:24:09;;;;;;;1.13;0.63;;;;;;;7.65;66.63;95315.13;5052320;28;20236;-84
2022/02/19 03:26:36;;;;;;;0.50;0.50;;;;;;;7.47;67.11;95333.25;5052851;28;20198;-84
2022/02/19 03:29:02;;;;;;;0.70;0.70;;;;;;;7.32;66.42;95327.97;5052193;28;20217;-83
2022/02/19 03:31:30;;;;;;;1.13;0.90;;;;;;;7.13;61.64;95347.03;5051632;28;20233;-84
2022/02/19 03:33:56;;;;;;;0.83;0.70;;;;;;;7.01;60.97;95343.22;5052508;28;20209;-84
2022/02/19 03:36:23;;;;;;;0.70;0.60;;;;;;;6.80;58.99;95333.44;5051180;28;20193;-84
2022/02/19 03:38:49;;;;;;;1.63;0.83;;;;;;;6.76;59.24;95344.97;5052453;28;20232;-83
2022/02/19 03:41:16;;;;;;;2.20;0.87;;;;;;;6.77;60.49;95333.78;5051562;28;20229;-85
2022/02/19 03:43:42;;;;;;;1.70;0.70;;;;;;;6.79;62.81;95348.97;5051958;28;20209;-83
2022/02/19 03:46:08;;;;;;;1.17;0.67;;;;;;;6.78;64.77;95340.47;5051566;28;20588;-84
2022/02/19 03:48:36;;;;;;;0.70;0.60;;;;;;;6.81;65.74;95345.28;5052596;28;20221;-84
2022/02/19 03:51:05;;;;;;;2.07;0.70;;;;;;;6.76;66.46;95344.16;5055471;28;20240;-84
2022/02/19 03:53:31;;;;;;;0.60;0.60;;;;;;;6.73;67.75;95352.19;5055853;28;20721;-83
2022/02/19 03:55:58;;;;;;;1.20;0.60;;;;;;;6.74;68.13;95361.41;5055763;28;20202;-84
2022/02/19 03:58:24;;;;;;;0.60;0.60;;;;;;;6.58;69.39;95360.44;5055536;28;20224;-84
2022/02/19 04:00:51;;;;;;;1.33;0.70;;;;;;;6.55;69.53;95365.88;5055431;28;20243;-84
2022/02/19 04:03:17;;;;;;;0.53;0.50;;;;;;;6.61;69.37;95366.22;5055014;28;20247;-84
2022/02/19 04:05:46;;;;;;;0.50;0.50;;;;;;;6.58;69.82;95364.75;5054973;28;20205;-83
2022/02/19 04:08:15;;;;;;;0.90;0.60;;;;;;;6.54;70.57;95378.84;5054615;28;20214;-83
2022/02/19 04:10:42;;;;;;;0.50;0.50;;;;;;;6.47;70.54;95377.84;5055146;28;20217;-83
2022/02/19 04:13:08;;;;;;;1.00;0.60;;;;;;;6.57;70.22;95373.38;5055709;28;20201;-85
2022/02/19 04:15:35;;;;;;;0.60;0.60;;;;;;;6.64;69.95;95376.94;5048873;28;20616;-83
2022/02/19 04:18:01;;;;;;;0.60;0.60;;;;;;;6.59;70.47;95372.28;5055344;28;20193;-83
2022/02/19 04:20:29;;;;;;;0.43;0.43;;;;;;;6.68;70.12;95378.22;5055124;28;20217;-84
2022/02/19 04:22:57;;;;;;;0.60;0.60;;;;;;;6.73;69.79;95378.56;5054159;28;20225;-83
2022/02/19 04:25:25;;;;;;;0.50;0.50;;;;;;;6.68;69.98;95383.34;5054810;28;20252;-83
2022/02/19 04:27:52;;;;;;;0.50;0.50;;;;;;;6.61;70.30;95379.78;5054998;28;20224;-85
2022/02/19 04:30:19;;;;;;;0.77;0.53;;;;;;;6.68;69.63;95388.47;5054074;28;20226;-84
2022/02/19 04:32:45;;;;;;;0.97;0.60;;;;;;;6.75;69.36;95389.41;5054142;28;20225;-83
2022/02/19 04:35:12;;;;;;;1.00;0.80;;;;;;;6.73;69.18;95385.44;5054434;28;20271;-83
2022/02/19 04:37:39;;;;;;;0.57;0.57;;;;;;;6.68;69.14;95388.47;5054905;28;20201;-85
2022/02/19 04:40:08;;;;;;;1.23;0.77;;;;;;;6.60;69.64;95396.09;5054427;28;20251;-83
2022/02/19 04:42:35;;;;;;;1.00;0.70;;;;;;;6.73;69.20;95399.03;5054167;28;20275;-84
2022/02/19 04:45:01;;;;;;;0.93;0.70;;;;;;;6.69;68.48;95394.38;5053558;28;20205;-83
2022/02/19 04:47:28;;;;;;;1.17;0.90;;;;;;;6.75;68.27;95394.53;5054073;28;20616;-83
2022/02/19 04:49:54;;;;;;;1.43;0.60;;;;;;;6.81;68.34;95393.09;5055663;28;20201;-82
2022/02/19 04:52:21;;;;;;;0.60;0.60;;;;;;;6.84;67.86;95397.91;5053927;28;20244;-83
2022/02/19 04:54:47;;;;;;;1.23;0.80;;;;;;;6.84;68.11;95403.84;5054657;28;20206;-85
2022/02/19 04:57:15;;;;;;;1.63;0.70;;;;;;;6.78;68.03;95409.56;5054515;28;20198;-84
2022/02/19 04:59:41;;;;;;;1.13;1.03;;;;;;;6.88;67.90;95407.69;5054801;28;20198;-83
2022/02/19 05:02:08;;;;;;;2.47;0.90;;;;;;;6.82;67.63;95408.31;5052956;28;20241;-84
2022/02/19 05:04:34;;;;;;;1.47;0.93;;;;;;;6.85;67.80;95414.88;5054488;28;20216;-83
2022/02/19 05:07:00;;;;;;;1.83;0.87;;;;;;;6.90;68.09;95421.13;5054641;28;20201;-83
2022/02/19 05:09:27;;;;;;;2.27;0.97;;;;;;;6.86;67.86;95421.59;5054052;28;20221;-84
2022/02/19 05:11:53;;;;;;;3.13;0.97;;;;;;;6.84;68.11;95423.50;5053364;28;20642;-83
2022/02/19 05:14:21;;;;;;;1.17;0.90;;;;;;;6.90;67.36;95438.25;5053440;28;20307;-82
2022/02/19 05:16:47;;;;;;;2.63;1.00;;;;;;;6.89;67.22;95432.31;5053917;28;20197;-84
2022/02/19 05:19:14;;;;;;;1.07;0.80;;;;;;;6.94;66.92;95432.63;5053868;28;20197;-84
2022/02/19 05:21:40;;;;;;;3.87;0.87;;;;;;;6.92;66.95;95433.75;5053422;28;20263;-83
2022/02/19 05:24:07;;;;;;;2.80;0.90;;;;;;;6.81;67.20;95434.84;5053903;28;20202;-84
2022/02/19 05:26:33;;;;;;;1.77;0.80;;;;;;;6.77;66.91;95441.22;5054182;28;20209;-84
2022/02/19 05:29:00;;;;;;;2.00;1.10;;;;;;;6.77;67.52;95437.88;5053503;28;20901;-84
2022/02/19 05:31:28;;;;;;;1.57;0.90;;;;;;;6.77;67.01;95450.66;5052834;28;20229;-82
2022/02/19 05:33:54;;;;;;;1.33;0.90;;;;;;;6.82;66.87;95459.47;5053756;28;20327;-85
2022/02/19 05:36:20;;;;;;;3.27;1.10;;;;;;;6.79;67.35;95449.56;5053866;28;20208;-84
2022/02/19 05:38:47;;;;;;;2.97;1.10;;;;;;;6.91;66.74;95456.00;5053713;28;20248;-83
2022/02/19 05:41:13;;;;;;;1.30;0.83;;;;;;;6.85;67.40;95454.06;5053261;28;20237;-84
2022/02/19 05:43:40;;;;;;;2.07;1.00;;;;;;;6.87;67.10;95470.06;5048980;28;20209;-84
2022/02/19 05:46:06;;;;;;;3.13;1.03;;;;;;;6.84;67.36;95467.00;5052337;28;20197;-82
2022/02/19 05:48:34;;;;;;;4.43;1.13;;;;;;;6.91;67.00;95461.13;5051567;28;20627;-84
2022/02/19 05:51:00;;;;;;;2.03;0.90;;;;;;;6.93;66.46;95471.16;5052162;28;20228;-83
2022/02/19 05:53:27;;;;;;;2.43;1.13;;;;;;;6.94;66.03;95468.44;5052796;28;20201;-84
2022/02/19 05:55:54;;;;;;;3.10;1.30;;;;;;;6.89;66.49;95478.38;5053030;28;20204;-80
2022/02/19 05:58:21;;;;;;;2.60;1.07;;;;;;;6.94;66.10;95480.44;5052184;28;20276;-84
2022/02/19 06:00:47;;;;;;;1.97;1.10;;;;;;;7.04;65.53;95488.00;5052358;28;20241;-85
2022/02/19 06:03:16;;;;;;;2.47;1.33;;;;;;;7.05;65.27;95485.28;5052652;28;20565;-83
2022/02/19 06:05:44;;;;;;;2.87;1.17;;;;;;;7.09;64.88;95484.03;5046729;28;20706;-83
2022/02/19 06:08:13;;;;;;;2.33;1.20;;;;;;;7.05;65.42;95489.59;5054132;28;20216;-84
2022/02/19 06:10:40;;;;;;;2.10;1.27;;;;;;;7.04;65.57;95496.47;5055070;28;20455;-84
2022/02/19 06:13:07;;;;;;;2.13;1.20;;;;;;;7.11;65.07;95505.16;5054473;28;20229;-81
2022/02/19 06:15:33;;;;;;;2.93;1.17;;;;;;;7.19;64.56;95507.72;5066436;28;20254;-83
2022/02/19 06:18:00;;;;;;;4.23;1.23;;;;;;;7.11;65.15;95505.16;5069890;28;20193;-82
2022/02/19 06:20:26;;;;;;;3.50;1.30;;;;;;;7.15;65.06;95511.53;5065769;28;20240;-84
2022/02/19 06:22:54;;;;;;;3.97;1.23;;;;;;;7.06;65.04;95504.00;5052281;28;20221;-85
2022/02/19 06:25:23;;;;;;;3.17;1.33;;;;;;;7.21;64.24;95516.03;5051213;28;20197;-85
2022/02/19 06:27:49;;;;;;;2.97;1.30;;;;;;;7.29;63.91;95517.81;5053214;28;20224;-84
2022/02/19 06:30:16;;;;;;;4.50;1.40;;;;;;;7.30;63.76;95523.75;5052735;28;20201;-84
2022/02/19 06:32:43;;;;;;;3.20;1.23;;;;;;;7.28;64.05;95517.03;5045462;28;20232;-85
2022/02/19 06:35:10;;;;;;;2.27;1.07;;;;;;;7.16;64.35;95525.94;5051551;28;20200;-83
2022/02/19 06:37:40;;;;;;;2.93;1.20;;;;;;;7.27;64.53;95528.22;5052478;28;20683;-83
2022/02/19 06:40:10;;;;;;;3.97;1.30;;;;;;;7.32;64.05;95537.97;5050789;28;20223;-83
2022/02/19 06:42:36;;;;;;;5.10;1.50;;;;;;;7.36;63.88;95548.72;5050531;28;20225;-83
2022/02/19 06:45:04;;;;;;;3.93;1.13;;;;;;;7.19;63.77;95541.00;5051358;28;20243;-84
2022/02/19 06:47:30;;;;;;;2.50;1.10;;;;;;;7.15;63.89;95537.13;5051459;28;20889;-83
2022/02/19 06:49:57;;;;;;;2.33;1.50;;;;;;;7.25;63.80;95550.63;5052321;28;20267;-84
2022/02/19 06:52:23;;;;;;;3.33;1.10;;;;;;;7.26;62.66;95549.66;5053039;28;20224;-83
2022/02/19 06:54:50;;;;;;;6.57;1.57;;;;;;;7.23;62.97;95570.47;5048289;28;20201;-84
2022/02/19 06:57:18;;;;;;;5.50;1.30;;;;;;;7.31;62.93;95559.44;5051126;28;20835;-83
2022/02/19 06:59:44;;;;;;;5.07;1.37;;;;;;;7.50;61.75;95574.53;5045429;28;20259;-85
2022/02/19 07:02:11;;;;;;;2.20;1.10;;;;;;;7.40;61.74;95575.63;5050598;28;20255;-84
2022/02/19 07:04:37;;;;;;;3.53;1.37;;;;;;;7.46;61.36;95577.56;5049007;28;20212;-85
2022/02/19 07:07:04;;;;;;;4.77;1.40;;;;;;;7.43;61.03;95583.78;5052171;28;20201;-83
2022/02/19 07:09:31;;;;;;;3.87;1.40;;;;;;;7.41;61.09;95585.72;5050277;28;20685;-85
2022/02/19 07:11:57;;;;;;;3.47;1.50;;;;;;;7.42;61.04;95600.13;5050630;28;20225;-82
2022/02/19 07:14:25;;;;;;;5.07;1.50;;;;;;;7.45;60.93;95610.06;5051056;28;20239;-84
2022/02/19 07:16:52;;;;;;;3.97;1.70;;;;;;;7.58;60.08;95607.03;5051465;28;20201;-84
2022/02/19 07:19:19;;;;;;;4.53;1.47;;;;;;;8.39;58.05;95603.72;5050959;28;20189;-82
2022/02/19 07:21:46;;;;;;;4.63;2.13;;;;;;;8.92;57.36;95615.97;5044451;28;20225;-83
2022/02/19 07:24:13;;;;;;;3.33;1.40;;;;;;;9.21;54.82;95617.97;5052442;28;20694;-82
2022/02/19 07:26:39;;;;;;;4.83;1.53;;;;;;;8.77;54.73;95615.06;5055286;28;20197;-83
2022/02/19 07:29:06;;;;;;;4.80;1.60;;;;;;;8.50;56.29;95627.28;5055149;28;20209;-83
2022/02/19 07:31:34;;;;;;;5.73;1.70;;;;;;;8.50;55.83;95622.16;5054022;28;20237;-82
2022/02/19 07:34:00;;;;;;;7.83;1.80;;;;;;;8.46;55.52;95623.47;5054963;28;20197;-82
2022/02/19 07:36:27;;;;;;;3.33;1.70;;;;;;;8.83;54.98;95633.16;5055203;28;20197;-82
2022/02/19 07:38:53;;;;;;;4.43;1.60;;;;;;;9.05;53.11;95636.78;5051695;28;20677;-82
2022/02/19 07:41:20;;;;;;;3.43;1.47;;;;;;;8.85;53.33;95645.84;5052009;28;20378;-81
2022/02/19 07:43:46;;;;;;;3.53;1.50;;;;;;;8.76;53.68;95639.13;5053362;28;20251;-83
2022/02/19 07:46:12;;;;;;;4.37;1.57;;;;;;;8.72;53.51;95648.09;5054122;28;20198;-82
2022/02/19 07:48:40;;;;;;;4.30;1.50;;;;;;;9.13;52.59;95670.16;5055097;28;20696;-82
2022/02/19 07:59:18;;;;;;;3.40;1.57;;;;;;;10.08;50.27;95663.09;5053975;28;20672;-84
2022/02/19 08:01:45;;;;;;;4.03;1.57;;;;;;;10.45;49.25;95669.28;5054181;28;20244;-83
2022/02/19 08:04:14;;;;;;;5.90;1.97;;;;;;;10.08;49.53;95659.72;5053609;28;20194;-84
2022/02/19 08:06:41;;;;;;;5.10;1.60;;;;;;;9.60;50.28;95669.34;5054144;28;20202;-83
2022/02/19 08:09:07;;;;;;;3.53;1.50;;;;;;;9.35;50.58;95666.06;5050959;28;20221;-83
2022/02/19 08:11:34;;;;;;;4.23;1.53;;;;;;;9.16;51.39;95664.69;5052423;28;20233;-83
2022/02/19 08:14:00;;;;;;;3.37;1.40;;;;;;;8.90;51.86;95666.69;5052557;28;20248;-82
2022/02/19 08:16:26;;;;;;;4.10;1.53;;;;;;;9.73;51.28;95681.63;5052319;28;20251;-82
2022/02/19 08:18:53;;;;;;;3.57;1.30;;;;;;;10.04;49.18;95690.94;5052855;28;20193;-80
2022/02/19 08:21:23;;;;;;;5.60;1.80;;;;;;;10.76;47.85;95690.59;5051819;28;20233;-84
2022/02/19 08:23:49;;;;;;;4.13;1.53;;;;;;;10.90;45.28;95679.53;5047101;28;20614;-82
2022/02/19 08:26:18;;;;;;;4.27;1.67;;;;;;;11.13;44.64;95688.97;5053102;28;20256;-80
2022/02/19 08:28:45;;;;;;;1.70;1.30;;;;;;;11.56;44.21;95698.44;5054179;28;20241;-82
2022/02/19 08:31:11;;;;;;;5.60;1.70;;;;;;;11.54;43.78;95697.03;5051889;28;20225;-82
2022/02/19 08:33:38;;;;;;;4.67;1.63;;;;;;;11.95;42.64;95702.50;5053413;28;20189;-84
2022/02/19 08:36:05;;;;;;;3.67;1.40;;;;;;;12.00;42.87;95700.19;5053118;28;20236;-84
2022/02/19 08:38:33;;;;;;;3.27;1.60;;;;;;;12.09;43.03;95702.47;5054446;28;20255;-84
2022/02/19 08:41:00;;;;;;;8.00;1.80;;;;;;;12.53;42.86;95698.09;5053426;28;20218;-84
2022/02/19 08:43:26;;;;;;;5.30;1.50;;;;;;;12.47;42.78;95702.25;5054224;28;20194;-84
2022/02/19 08:45:52;;;;;;;5.60;2.10;;;;;;;12.10;43.96;95698.91;5053933;28;20583;-84
2022/02/19 08:48:19;;;;;;;2.83;1.43;;;;;;;12.35;44.46;95699.34;5053988;28;20329;-84
2022/02/19 08:50:46;;;;;;;4.73;1.80;;;;;;;11.56;42.98;95695.06;5053265;28;20283;-85
2022/02/19 08:53:14;;;;;;;5.90;1.60;;;;;;;11.12;42.98;95707.97;5052751;28;20239;-86
2022/02/19 08:55:43;;;;;;;2.70;1.50;;;;;;;11.13;43.75;95712.16;5054431;28;20201;-85
2022/02/19 08:58:09;;;;;;;4.60;1.77;;;;;;;10.87;43.79;95712.53;5053449;28;20443;-86
2022/02/19 09:00:36;;;;;;;27.60;3.90;;;;;;;11.21;46.97;95715.44;5052716;28;20259;-83
2022/02/19 09:03:04;;;;;;;7.23;2.40;;;;;;;11.74;47.12;95711.75;5053677;28;20227;-84
2022/02/19 09:05:31;;;;;;;5.07;1.80;;;;;;;12.18;42.49;95713.47;5052787;28;20193;-86
2022/02/19 09:07:57;;;;;;;3.60;1.60;;;;;;;12.33;41.01;95713.41;5053789;28;20212;-84
2022/02/19 09:10:24;;;;;;;4.43;1.33;;;;;;;12.08;40.43;95711.19;5052074;28;20484;-87
2022/02/19 09:12:54;;;;;;;4.77;1.53;;;;;;;11.45;41.17;95735.00;5053010;28;20639;-82
2022/02/19 09:15:23;;;;;;;3.63;1.83;;;;;;;11.62;40.55;95738.19;5056101;28;20201;-81
2022/02/19 09:17:51;;;;;;;3.33;1.43;;;;;;;11.44;40.13;95730.81;5054807;28;20719;-81
2022/02/19 09:20:21;;;;;;;2.37;1.50;;;;;;;11.34;40.88;95743.19;5054875;28;20213;-80
2022/02/19 09:22:47;;;;;;;3.57;1.37;;;;;;;11.72;40.32;95739.53;5053189;28;20229;-81
2022/02/19 09:25:14;;;;;;;2.70;1.63;;;;;;;11.82;41.58;95747.00;5056154;28;20232;-79
2022/02/19 09:27:42;;;;;;;5.37;1.40;;;;;;;11.14;40.85;95732.59;5058450;28;20197;-79
2022/02/19 09:30:11;;;;;;;5.90;1.60;;;;;;;11.20;40.80;95738.78;5056876;28;20726;-79
2022/02/19 09:32:38;;;;;;;4.20;1.60;;;;;;;11.28;40.94;95741.31;5056779;28;20288;-80
2022/02/19 09:35:06;;;;;;;3.23;1.30;;;;;;;11.58;40.67;95765.31;5056350;28;20706;-78
2022/02/19 09:37:33;;;;;;;5.57;2.77;;;;;;;11.21;40.66;95750.72;5058049;28;20206;-82
2022/02/19 09:40:00;;;;;;;3.53;1.37;;;;;;;11.33;40.02;95746.75;5056057;28;20189;-81
2022/02/19 09:42:26;;;;;;;7.97;1.70;;;;;;;11.70;42.17;95766.47;5054058;28;20229;-80
2022/02/19 09:44:54;;;;;;;5.63;1.37;;;;;;;11.66;40.89;95754.91;5048942;28;20668;-81
2022/02/19 09:47:25;;;;;;;5.13;1.60;;;;;;;11.96;40.77;95760.88;5052848;28;20194;-80
2022/02/19 09:49:51;;;;;;;4.77;1.20;;;;;;;12.41;39.65;95755.44;5053918;28;20281;-81
2022/02/19 09:52:18;;;;;;;2.87;1.20;;;;;;;12.35;39.62;95763.88;5053442;28;20225;-83
2022/02/19 09:54:44;;;;;;;3.40;1.47;;;;;;;12.29;39.74;95766.41;5054153;28;20675;-81
2022/02/19 09:57:11;;;;;;;6.57;1.50;;;;;;;12.21;40.34;95769.91;5056133;28;20263;-83
2022/02/19 09:59:37;;;;;;;4.20;1.67;;;;;;;12.37;39.38;95767.09;5053792;28;20190;-83
2022/02/19 10:02:06;;;;;;;2.67;1.37;;;;;;;12.45;39.24;95767.00;5052336;28;20225;-78
2022/02/19 10:04:35;;;;;;;4.33;1.33;;;;;;;12.63;38.81;95771.72;5055152;28;20277;-84
2022/02/19 10:07:12;;;;;;;4.87;1.50;;;;;;;12.90;43.89;95766.78;5053338;28;20196;-84
2022/02/19 10:09:40;;;;;;;8.83;2.27;;;;;;;13.38;45.17;95772.97;5052504;28;20220;-82
2022/02/19 10:12:12;;;;;;;3.30;1.43;;;;;;;13.12;37.89;95771.75;5053790;28;20232;-82
2022/02/19 10:14:39;;;;;;;2.83;1.57;;;;;;;12.74;39.24;95775.59;5053833;28;20762;-81
2022/02/19 10:17:17;;;;;;;5.27;1.60;;;;;;;12.30;39.60;95792.06;5055300;28;20228;-79
2022/02/19 10:19:50;;;;;;;3.70;1.30;;;;;;;12.23;37.41;95796.34;5053848;28;20475;-82
2022/02/19 10:22:17;;;;;;;3.83;1.80;;;;;;;11.95;37.97;95783.28;5053497;28;20728;-79
2022/02/19 10:24:46;;;;;;;2.40;1.27;;;;;;;12.01;37.76;95785.16;5052740;28;20202;-79
2022/02/19 10:27:12;;;;;;;5.47;1.60;;;;;;;12.35;37.66;95779.38;5052286;28;20197;-81
2022/02/19 10:29:50;;;;;;;3.00;1.77;;;;;;;12.33;37.36;95777.97;5051854;28;20218;-81
2022/02/19 10:32:17;;;;;;;8.07;1.97;;;;;;;12.29;42.41;95779.34;5052362;28;20229;-81
2022/02/19 10:34:56;;;;;;;3.80;1.53;;;;;;;12.67;41.42;95785.88;5051276;28;20619;-80
2022/02/19 10:37:24;;;;;;;10.17;5.10;;;;;;;13.17;39.41;95785.94;5052407;28;20235;-79
2022/02/19 10:39:51;;;;;;;8.10;4.53;;;;;;;13.26;36.91;95787.41;5051792;28;22188;-81
2022/02/19 10:42:18;;;;;;;12.60;1.70;;;;;;;13.31;35.85;95788.41;5051266;28;20236;-81
2022/02/19 10:44:45;;;;;;;4.70;1.50;;;;;;;13.28;35.70;95788.78;5051183;28;20194;-79
2022/02/19 10:47:19;;;;;;;3.78;1.90;;;;;;;13.30;36.65;95786.81;5051061;28;20447;-81
2022/02/19 10:50:06;;;;;;;6.57;1.67;;;;;;;13.18;37.76;95785.75;5050981;28;20213;-81
2022/02/19 10:52:33;;;;;;;4.30;1.70;;;;;;;13.29;35.99;95779.25;5050780;28;21961;-82
2022/02/19 10:55:08;;;;;;;3.53;1.50;;;;;;;13.20;35.39;95782.97;5052711;28;20197;-84
2022/02/19 10:57:39;;;;;;;3.67;1.70;;;;;;;13.26;35.62;95783.03;5051227;28;20572;-84
2022/02/19 11:00:14;;;;;;;3.13;1.60;;;;;;;13.27;38.12;95783.84;5050586;28;20194;-82
2022/02/19 11:02:41;;;;;;;3.53;1.53;;;;;;;13.59;36.38;95791.00;5051672;28;20235;-82
2022/02/19 11:05:10;;;;;;;4.80;1.90;;;;;;;13.88;37.91;95786.56;5053853;28;20202;-86
2022/02/19 11:07:38;;;;;;;4.63;1.73;;;;;;;14.12;37.16;95783.50;5051775;28;20194;-84
2022/02/19 11:10:06;;;;;;;4.30;1.67;;;;;;;14.15;38.81;95783.13;5051698;28;20221;-78
2022/02/19 11:12:33;;;;;;;4.93;1.73;;;;;;;13.92;36.65;95790.38;5051534;28;20237;-78
2022/02/19 11:15:00;;;;;;;3.92;1.83;;;;;;;13.95;34.76;95777.06;5049819;28;20443;-81
2022/02/19 11:17:28;;;;;;;4.47;1.60;;;;;;;13.15;35.86;95780.94;5050889;28;20193;-87
2022/02/19 11:19:59;;;;;;;3.80;1.50;;;;;;;12.68;35.44;95766.03;5050263;28;20250;-80
2022/02/19 11:22:30;;;;;;;4.63;1.70;;;;;;;12.42;35.94;95788.00;5043493;28;20275;-80
2022/02/19 11:24:56;;;;;;;3.87;1.60;;;;;;;12.20;36.69;95798.47;5049797;28;20243;-83
2022/02/19 11:27:25;;;;;;;4.10;1.60;;;;;;;12.07;36.35;95781.88;5048328;28;20198;-81
2022/02/19 11:29:53;;;;;;;4.40;2.03;;;;;;;12.28;36.65;95772.56;5047144;28;20224;-82
2022/02/19 11:32:20;;;;;;;4.37;1.57;;;;;;;12.03;36.68;95772.06;5048684;28;20225;-81
2022/02/19 11:34:50;;;;;;;3.40;1.40;;;;;;;11.99;37.34;95784.53;5049016;28;20197;-81
2022/02/19 11:37:19;;;;;;;3.27;1.70;;;;;;;11.70;38.09;95779.38;5049310;28;20250;-84
2022/02/19 11:40:00;;;;;;;3.63;1.53;;;;;;;11.75;38.36;95777.84;5048677;28;20256;-82
2022/02/19 11:42:39;;;;;;;4.63;1.87;;;;;;;11.85;38.62;95772.47;5047869;28;20748;-83
2022/02/19 11:45:21;;;;;;;4.17;1.43;;;;;;;11.83;37.87;95771.03;5046429;28;20201;-83
2022/02/19 11:47:49;;;;;;;5.00;1.80;;;;;;;12.40;37.40;95769.31;5048977;28;20251;-83